sensor_id;sensor_type;location;lat;lon;timestamp;P1;durP1;ratioP1;P2;durP2;ratioP2
48006;SDS011;33771;48.180;11.400;2023-07-08T00:02:10;13.48;;;8.23;;
48006;SDS011;33771;48.180;11.400;2023-07-08T00:04:37;11.48;;;7.93;;
48006;SDS011;33771;48.180;11.400;2023-07-08T00:07:03;12.73;;;8.70;;
48006;SDS011;33771;48.180;11.400;2023-07-08T00:09:29;15.48;;;9.15;;
48006;SDS011;33771;48.180;11.400;2023-07-08T00:11:55;17.73;;;8.90;;
48006;SDS011;33771;48.180;11.400;2023-07-08T00:14:22;14.65;;;8.60;;
48006;SDS011;33771;48.180;11.400;2023-07-08T00:16:48;14.77;;;8.48;;
48006;SDS011;33771;48.180;11.400;2023-07-08T00:19:14;11.93;;;7.68;;
48006;SDS011;33771;48.180;11.400;2023-07-08T00:21:44;13.35;;;8.18;;
48006;SDS011;33771;48.180;11.400;2023-07-08T00:24:10;14.15;;;8.10;;
48006;SDS011;33771;48.180;11.400;2023-07-08T00:26:35;13.88;;;7.78;;
48006;SDS011;33771;48.180;11.400;2023-07-08T00:29:01;12.43;;;8.85;;
48006;SDS011;33771;48.180;11.400;2023-07-08T00:31:27;12.07;;;7.65;;
48006;SDS011;33771;48.180;11.400;2023-07-08T00:33:53;13.80;;;7.75;;
48006;SDS011;33771;48.180;11.400;2023-07-08T00:36:20;12.88;;;7.70;;
48006;SDS011;33771;48.180;11.400;2023-07-08T00:38:47;13.52;;;8.15;;
48006;SDS011;33771;48.180;11.400;2023-07-08T00:41:18;13.27;;;7.97;;
48006;SDS011;33771;48.180;11.400;2023-07-08T00:43:49;11.20;;;7.68;;
48006;SDS011;33771;48.180;11.400;2023-07-08T00:48:53;13.15;;;8.05;;
48006;SDS011;33771;48.180;11.400;2023-07-08T00:51:21;10.57;;;7.68;;
48006;SDS011;33771;48.180;11.400;2023-07-08T00:53:48;13.77;;;8.55;;
48006;SDS011;33771;48.180;11.400;2023-07-08T01:01:36;14.38;;;8.13;;
48006;SDS011;33771;48.180;11.400;2023-07-08T01:04:09;11.18;;;7.85;;
48006;SDS011;33771;48.180;11.400;2023-07-08T01:06:40;13.93;;;8.57;;
48006;SDS011;33771;48.180;11.400;2023-07-08T01:09:09;12.50;;;8.15;;
48006;SDS011;33771;48.180;11.400;2023-07-08T01:11:37;11.27;;;7.72;;
48006;SDS011;33771;48.180;11.400;2023-07-08T01:14:05;11.50;;;7.65;;
48006;SDS011;33771;48.180;11.400;2023-07-08T01:16:37;11.68;;;6.85;;
48006;SDS011;33771;48.180;11.400;2023-07-08T01:19:04;12.73;;;7.78;;
48006;SDS011;33771;48.180;11.400;2023-07-08T01:21:38;11.60;;;7.95;;
48006;SDS011;33771;48.180;11.400;2023-07-08T01:24:10;13.43;;;7.82;;
48006;SDS011;33771;48.180;11.400;2023-07-08T01:26:37;13.82;;;7.45;;
48006;SDS011;33771;48.180;11.400;2023-07-08T01:29:06;13.73;;;7.75;;
48006;SDS011;33771;48.180;11.400;2023-07-08T01:31:32;14.75;;;8.25;;
48006;SDS011;33771;48.180;11.400;2023-07-08T01:33:59;13.48;;;8.25;;
48006;SDS011;33771;48.180;11.400;2023-07-08T01:36:24;10.77;;;7.32;;
48006;SDS011;33771;48.180;11.400;2023-07-08T01:38:54;12.60;;;8.32;;
48006;SDS011;33771;48.180;11.400;2023-07-08T01:41:20;12.18;;;7.82;;
48006;SDS011;33771;48.180;11.400;2023-07-08T01:43:46;11.27;;;7.32;;
48006;SDS011;33771;48.180;11.400;2023-07-08T01:46:13;15.30;;;8.02;;
48006;SDS011;33771;48.180;11.400;2023-07-08T01:48:45;14.40;;;8.18;;
48006;SDS011;33771;48.180;11.400;2023-07-08T01:51:14;13.52;;;8.30;;
48006;SDS011;33771;48.180;11.400;2023-07-08T01:53:40;11.98;;;8.00;;
48006;SDS011;33771;48.180;11.400;2023-07-08T01:56:07;12.00;;;7.45;;
48006;SDS011;33771;48.180;11.400;2023-07-08T01:58:34;13.60;;;7.50;;
48006;SDS011;33771;48.180;11.400;2023-07-08T02:00:59;11.15;;;7.97;;
48006;SDS011;33771;48.180;11.400;2023-07-08T02:03:26;13.93;;;7.55;;
48006;SDS011;33771;48.180;11.400;2023-07-08T02:05:52;13.23;;;7.68;;
48006;SDS011;33771;48.180;11.400;2023-07-08T02:08:18;14.30;;;7.95;;
48006;SDS011;33771;48.180;11.400;2023-07-08T02:10:48;14.18;;;7.60;;
48006;SDS011;33771;48.180;11.400;2023-07-08T02:13:16;13.00;;;8.38;;
48006;SDS011;33771;48.180;11.400;2023-07-08T02:15:41;12.60;;;7.80;;
48006;SDS011;33771;48.180;11.400;2023-07-08T02:18:07;15.00;;;8.70;;
48006;SDS011;33771;48.180;11.400;2023-07-08T02:20:32;14.35;;;8.20;;
48006;SDS011;33771;48.180;11.400;2023-07-08T02:22:58;14.50;;;8.60;;
48006;SDS011;33771;48.180;11.400;2023-07-08T02:25:23;14.27;;;8.15;;
48006;SDS011;33771;48.180;11.400;2023-07-08T02:27:49;13.80;;;8.60;;
48006;SDS011;33771;48.180;11.400;2023-07-08T02:30:15;12.85;;;8.10;;
48006;SDS011;33771;48.180;11.400;2023-07-08T02:32:40;12.10;;;8.15;;
48006;SDS011;33771;48.180;11.400;2023-07-08T02:35:07;13.27;;;8.45;;
48006;SDS011;33771;48.180;11.400;2023-07-08T02:37:33;13.32;;;8.55;;
48006;SDS011;33771;48.180;11.400;2023-07-08T02:39:59;15.38;;;8.55;;
48006;SDS011;33771;48.180;11.400;2023-07-08T02:42:25;12.00;;;7.85;;
48006;SDS011;33771;48.180;11.400;2023-07-08T02:44:51;11.80;;;8.57;;
48006;SDS011;33771;48.180;11.400;2023-07-08T02:47:16;15.63;;;8.07;;
48006;SDS011;33771;48.180;11.400;2023-07-08T02:49:42;13.02;;;7.85;;
48006;SDS011;33771;48.180;11.400;2023-07-08T02:52:08;12.73;;;8.45;;
48006;SDS011;33771;48.180;11.400;2023-07-08T02:54:33;13.27;;;8.43;;
48006;SDS011;33771;48.180;11.400;2023-07-08T02:56:59;13.93;;;8.43;;
48006;SDS011;33771;48.180;11.400;2023-07-08T02:59:25;14.23;;;8.60;;
48006;SDS011;33771;48.180;11.400;2023-07-08T03:01:52;13.00;;;8.30;;
48006;SDS011;33771;48.180;11.400;2023-07-08T03:04:18;14.32;;;8.15;;
48006;SDS011;33771;48.180;11.400;2023-07-08T03:06:47;11.50;;;7.57;;
48006;SDS011;33771;48.180;11.400;2023-07-08T03:09:14;12.52;;;7.65;;
48006;SDS011;33771;48.180;11.400;2023-07-08T03:11:40;9.95;;;6.97;;
48006;SDS011;33771;48.180;11.400;2023-07-08T03:14:06;13.57;;;7.25;;
48006;SDS011;33771;48.180;11.400;2023-07-08T03:16:31;11.77;;;7.63;;
48006;SDS011;33771;48.180;11.400;2023-07-08T03:18:57;10.95;;;7.20;;
48006;SDS011;33771;48.180;11.400;2023-07-08T03:21:23;14.43;;;7.60;;
48006;SDS011;33771;48.180;11.400;2023-07-08T03:23:49;11.60;;;6.82;;
48006;SDS011;33771;48.180;11.400;2023-07-08T03:26:17;15.18;;;8.07;;
48006;SDS011;33771;48.180;11.400;2023-07-08T03:28:45;11.13;;;7.63;;
48006;SDS011;33771;48.180;11.400;2023-07-08T03:31:11;11.45;;;7.88;;
48006;SDS011;33771;48.180;11.400;2023-07-08T03:33:37;11.30;;;7.72;;
48006;SDS011;33771;48.180;11.400;2023-07-08T03:36:04;12.57;;;8.30;;
48006;SDS011;33771;48.180;11.400;2023-07-08T03:38:35;12.45;;;7.57;;
48006;SDS011;33771;48.180;11.400;2023-07-08T03:41:00;11.65;;;7.68;;
48006;SDS011;33771;48.180;11.400;2023-07-08T03:43:26;13.82;;;7.45;;
48006;SDS011;33771;48.180;11.400;2023-07-08T03:45:51;14.43;;;7.53;;
48006;SDS011;33771;48.180;11.400;2023-07-08T03:48:17;13.63;;;8.05;;
48006;SDS011;33771;48.180;11.400;2023-07-08T03:50:42;10.75;;;7.32;;
48006;SDS011;33771;48.180;11.400;2023-07-08T03:53:08;13.15;;;7.72;;
48006;SDS011;33771;48.180;11.400;2023-07-08T03:55:34;11.68;;;7.88;;
48006;SDS011;33771;48.180;11.400;2023-07-08T03:58:00;15.32;;;8.35;;
48006;SDS011;33771;48.180;11.400;2023-07-08T04:00:25;11.30;;;7.75;;
48006;SDS011;33771;48.180;11.400;2023-07-08T04:02:51;14.45;;;8.50;;
48006;SDS011;33771;48.180;11.400;2023-07-08T04:05:17;11.77;;;7.95;;
48006;SDS011;33771;48.180;11.400;2023-07-08T04:07:44;13.93;;;7.78;;
48006;SDS011;33771;48.180;11.400;2023-07-08T04:10:10;11.90;;;7.68;;
48006;SDS011;33771;48.180;11.400;2023-07-08T04:12:37;12.68;;;7.95;;
48006;SDS011;33771;48.180;11.400;2023-07-08T04:15:03;17.00;;;8.15;;
48006;SDS011;33771;48.180;11.400;2023-07-08T04:17:29;12.38;;;7.88;;
48006;SDS011;33771;48.180;11.400;2023-07-08T04:19:55;14.00;;;7.93;;
48006;SDS011;33771;48.180;11.400;2023-07-08T04:22:26;15.23;;;7.68;;
48006;SDS011;33771;48.180;11.400;2023-07-08T04:24:51;12.15;;;7.38;;
48006;SDS011;33771;48.180;11.400;2023-07-08T04:27:17;10.50;;;7.43;;
48006;SDS011;33771;48.180;11.400;2023-07-08T04:29:43;10.73;;;7.60;;
48006;SDS011;33771;48.180;11.400;2023-07-08T04:32:09;13.43;;;7.80;;
48006;SDS011;33771;48.180;11.400;2023-07-08T04:34:34;16.50;;;9.32;;
48006;SDS011;33771;48.180;11.400;2023-07-08T04:37:00;14.10;;;8.18;;
48006;SDS011;33771;48.180;11.400;2023-07-08T04:39:26;12.65;;;7.32;;
48006;SDS011;33771;48.180;11.400;2023-07-08T04:41:51;11.80;;;7.68;;
48006;SDS011;33771;48.180;11.400;2023-07-08T04:44:17;13.00;;;8.45;;
48006;SDS011;33771;48.180;11.400;2023-07-08T04:49:11;13.35;;;8.20;;
48006;SDS011;33771;48.180;11.400;2023-07-08T04:51:40;12.20;;;7.43;;
48006;SDS011;33771;48.180;11.400;2023-07-08T04:54:06;14.27;;;8.30;;
48006;SDS011;33771;48.180;11.400;2023-07-08T04:56:40;12.48;;;7.93;;
48006;SDS011;33771;48.180;11.400;2023-07-08T04:59:11;13.45;;;7.50;;
48006;SDS011;33771;48.180;11.400;2023-07-08T05:01:39;12.95;;;7.80;;
48006;SDS011;33771;48.180;11.400;2023-07-08T05:04:06;18.20;;;7.90;;
48006;SDS011;33771;48.180;11.400;2023-07-08T05:06:32;12.68;;;7.90;;
48006;SDS011;33771;48.180;11.400;2023-07-08T05:08:58;17.90;;;8.45;;
48006;SDS011;33771;48.180;11.400;2023-07-08T05:11:24;13.70;;;8.65;;
48006;SDS011;33771;48.180;11.400;2023-07-08T05:13:50;10.32;;;7.00;;
48006;SDS011;33771;48.180;11.400;2023-07-08T05:16:16;12.57;;;7.90;;
48006;SDS011;33771;48.180;11.400;2023-07-08T05:18:42;11.77;;;7.63;;
48006;SDS011;33771;48.180;11.400;2023-07-08T05:21:08;12.15;;;7.90;;
48006;SDS011;33771;48.180;11.400;2023-07-08T05:23:34;14.93;;;7.55;;
48006;SDS011;33771;48.180;11.400;2023-07-08T05:26:00;12.15;;;7.03;;
48006;SDS011;33771;48.180;11.400;2023-07-08T05:28:27;14.32;;;7.25;;
48006;SDS011;33771;48.180;11.400;2023-07-08T05:30:53;13.30;;;6.45;;
48006;SDS011;33771;48.180;11.400;2023-07-08T05:33:20;11.20;;;6.72;;
48006;SDS011;33771;48.180;11.400;2023-07-08T05:35:49;14.02;;;6.75;;
48006;SDS011;33771;48.180;11.400;2023-07-08T05:38:15;9.80;;;6.53;;
48006;SDS011;33771;48.180;11.400;2023-07-08T05:40:40;12.65;;;7.03;;
48006;SDS011;33771;48.180;11.400;2023-07-08T05:43:06;11.82;;;6.78;;
48006;SDS011;33771;48.180;11.400;2023-07-08T05:45:32;13.10;;;7.18;;
48006;SDS011;33771;48.180;11.400;2023-07-08T05:47:58;13.10;;;7.07;;
48006;SDS011;33771;48.180;11.400;2023-07-08T05:50:24;10.43;;;6.60;;
48006;SDS011;33771;48.180;11.400;2023-07-08T05:52:50;10.65;;;7.00;;
48006;SDS011;33771;48.180;11.400;2023-07-08T05:55:15;10.15;;;6.78;;
48006;SDS011;33771;48.180;11.400;2023-07-08T05:57:41;10.05;;;6.13;;
48006;SDS011;33771;48.180;11.400;2023-07-08T06:00:07;8.48;;;6.43;;
48006;SDS011;33771;48.180;11.400;2023-07-08T06:02:33;12.30;;;6.38;;
48006;SDS011;33771;48.180;11.400;2023-07-08T06:04:58;11.48;;;6.53;;
48006;SDS011;33771;48.180;11.400;2023-07-08T06:07:24;15.85;;;6.57;;
48006;SDS011;33771;48.180;11.400;2023-07-08T06:09:49;9.68;;;6.50;;
48006;SDS011;33771;48.180;11.400;2023-07-08T06:12:16;8.27;;;6.00;;
48006;SDS011;33771;48.180;11.400;2023-07-08T06:14:41;10.40;;;6.85;;
48006;SDS011;33771;48.180;11.400;2023-07-08T06:17:08;11.23;;;6.50;;
48006;SDS011;33771;48.180;11.400;2023-07-08T06:19:34;10.52;;;6.40;;
48006;SDS011;33771;48.180;11.400;2023-07-08T06:21:59;9.93;;;6.25;;
48006;SDS011;33771;48.180;11.400;2023-07-08T06:24:25;17.92;;;8.10;;
48006;SDS011;33771;48.180;11.400;2023-07-08T06:26:50;9.18;;;6.70;;
48006;SDS011;33771;48.180;11.400;2023-07-08T06:29:16;7.57;;;5.75;;
48006;SDS011;33771;48.180;11.400;2023-07-08T06:31:41;11.35;;;6.35;;
48006;SDS011;33771;48.180;11.400;2023-07-08T06:34:07;10.60;;;6.35;;
48006;SDS011;33771;48.180;11.400;2023-07-08T06:36:33;10.13;;;6.85;;
48006;SDS011;33771;48.180;11.400;2023-07-08T06:38:58;9.77;;;5.65;;
48006;SDS011;33771;48.180;11.400;2023-07-08T06:41:24;11.02;;;6.55;;
48006;SDS011;33771;48.180;11.400;2023-07-08T06:43:49;10.93;;;7.38;;
48006;SDS011;33771;48.180;11.400;2023-07-08T06:46:15;14.25;;;7.55;;
48006;SDS011;33771;48.180;11.400;2023-07-08T06:48:41;10.07;;;6.70;;
48006;SDS011;33771;48.180;11.400;2023-07-08T06:51:07;12.75;;;6.97;;
48006;SDS011;33771;48.180;11.400;2023-07-08T06:53:33;11.77;;;7.18;;
48006;SDS011;33771;48.180;11.400;2023-07-08T06:55:58;11.57;;;6.95;;
48006;SDS011;33771;48.180;11.400;2023-07-08T06:58:24;12.38;;;7.97;;
48006;SDS011;33771;48.180;11.400;2023-07-08T07:00:49;12.38;;;6.40;;
48006;SDS011;33771;48.180;11.400;2023-07-08T07:03:15;10.63;;;7.07;;
48006;SDS011;33771;48.180;11.400;2023-07-08T07:05:40;14.93;;;7.55;;
48006;SDS011;33771;48.180;11.400;2023-07-08T07:08:08;14.30;;;8.25;;
48006;SDS011;33771;48.180;11.400;2023-07-08T07:10:33;12.68;;;7.65;;
48006;SDS011;33771;48.180;11.400;2023-07-08T07:12:59;12.07;;;7.55;;
48006;SDS011;33771;48.180;11.400;2023-07-08T07:15:25;14.80;;;8.55;;
48006;SDS011;33771;48.180;11.400;2023-07-08T07:17:51;12.95;;;8.43;;
48006;SDS011;33771;48.180;11.400;2023-07-08T07:20:16;14.88;;;8.25;;
48006;SDS011;33771;48.180;11.400;2023-07-08T07:22:42;11.63;;;7.78;;
48006;SDS011;33771;48.180;11.400;2023-07-08T07:25:07;15.70;;;8.52;;
48006;SDS011;33771;48.180;11.400;2023-07-08T07:27:33;15.27;;;8.40;;
48006;SDS011;33771;48.180;11.400;2023-07-08T07:29:59;12.73;;;8.57;;
48006;SDS011;33771;48.180;11.400;2023-07-08T07:32:24;13.38;;;8.38;;
48006;SDS011;33771;48.180;11.400;2023-07-08T07:34:51;12.55;;;8.15;;
48006;SDS011;33771;48.180;11.400;2023-07-08T07:37:18;14.45;;;7.82;;
48006;SDS011;33771;48.180;11.400;2023-07-08T07:39:45;10.85;;;7.53;;
48006;SDS011;33771;48.180;11.400;2023-07-08T07:42:11;14.90;;;9.23;;
48006;SDS011;33771;48.180;11.400;2023-07-08T07:44:38;13.55;;;8.90;;
48006;SDS011;33771;48.180;11.400;2023-07-08T07:47:07;14.02;;;8.15;;
48006;SDS011;33771;48.180;11.400;2023-07-08T07:49:34;11.18;;;7.95;;
48006;SDS011;33771;48.180;11.400;2023-07-08T07:52:00;14.07;;;7.88;;
48006;SDS011;33771;48.180;11.400;2023-07-08T07:54:25;15.77;;;8.27;;
48006;SDS011;33771;48.180;11.400;2023-07-08T07:56:51;14.32;;;8.55;;
48006;SDS011;33771;48.180;11.400;2023-07-08T07:59:17;11.90;;;8.25;;
48006;SDS011;33771;48.180;11.400;2023-07-08T08:01:43;13.00;;;7.88;;
48006;SDS011;33771;48.180;11.400;2023-07-08T08:04:09;11.93;;;7.82;;
48006;SDS011;33771;48.180;11.400;2023-07-08T08:06:35;12.63;;;8.35;;
48006;SDS011;33771;48.180;11.400;2023-07-08T08:09:02;13.90;;;8.10;;
48006;SDS011;33771;48.180;11.400;2023-07-08T08:11:28;12.65;;;8.35;;
48006;SDS011;33771;48.180;11.400;2023-07-08T08:13:54;11.98;;;7.82;;
48006;SDS011;33771;48.180;11.400;2023-07-08T08:16:20;13.32;;;7.90;;
48006;SDS011;33771;48.180;11.400;2023-07-08T08:18:46;13.18;;;8.45;;
48006;SDS011;33771;48.180;11.400;2023-07-08T08:21:12;15.02;;;8.20;;
48006;SDS011;33771;48.180;11.400;2023-07-08T08:23:38;14.90;;;7.65;;
48006;SDS011;33771;48.180;11.400;2023-07-08T08:26:04;11.30;;;7.40;;
48006;SDS011;33771;48.180;11.400;2023-07-08T08:28:29;13.88;;;8.77;;
48006;SDS011;33771;48.180;11.400;2023-07-08T08:30:55;15.07;;;8.43;;
48006;SDS011;33771;48.180;11.400;2023-07-08T08:33:21;14.88;;;8.23;;
48006;SDS011;33771;48.180;11.400;2023-07-08T08:35:47;14.43;;;8.95;;
48006;SDS011;33771;48.180;11.400;2023-07-08T08:38:13;10.95;;;7.88;;
48006;SDS011;33771;48.180;11.400;2023-07-08T08:40:39;13.13;;;8.07;;
48006;SDS011;33771;48.180;11.400;2023-07-08T08:43:09;13.02;;;7.95;;
48006;SDS011;33771;48.180;11.400;2023-07-08T08:45:52;16.08;;;8.10;;
48006;SDS011;33771;48.180;11.400;2023-07-08T08:48:22;13.27;;;8.05;;
48006;SDS011;33771;48.180;11.400;2023-07-08T08:50:51;22.73;;;8.45;;
48006;SDS011;33771;48.180;11.400;2023-07-08T08:53:20;16.02;;;8.05;;
48006;SDS011;33771;48.180;11.400;2023-07-08T08:55:50;11.00;;;8.00;;
48006;SDS011;33771;48.180;11.400;2023-07-08T08:58:37;14.95;;;8.52;;
48006;SDS011;33771;48.180;11.400;2023-07-08T09:01:10;14.82;;;8.10;;
48006;SDS011;33771;48.180;11.400;2023-07-08T09:06:26;10.80;;;7.25;;
48006;SDS011;33771;48.180;11.400;2023-07-08T09:08:53;10.35;;;7.78;;
48006;SDS011;33771;48.180;11.400;2023-07-08T09:13:55;12.07;;;8.82;;
48006;SDS011;33771;48.180;11.400;2023-07-08T09:19:07;10.68;;;7.63;;
48006;SDS011;33771;48.180;11.400;2023-07-08T09:21:40;13.05;;;8.50;;
48006;SDS011;33771;48.180;11.400;2023-07-08T09:24:29;11.23;;;7.05;;
48006;SDS011;33771;48.180;11.400;2023-07-08T09:27:14;11.98;;;7.30;;
48006;SDS011;33771;48.180;11.400;2023-07-08T09:29:40;10.60;;;7.32;;
48006;SDS011;33771;48.180;11.400;2023-07-08T09:32:16;11.57;;;7.60;;
48006;SDS011;33771;48.180;11.400;2023-07-08T09:34:49;9.73;;;6.93;;
48006;SDS011;33771;48.180;11.400;2023-07-08T09:37:24;13.63;;;7.35;;
48006;SDS011;33771;48.180;11.400;2023-07-08T09:39:52;12.25;;;7.13;;
48006;SDS011;33771;48.180;11.400;2023-07-08T09:42:19;16.23;;;6.97;;
48006;SDS011;33771;48.180;11.400;2023-07-08T09:44:47;13.80;;;7.70;;
48006;SDS011;33771;48.180;11.400;2023-07-08T09:47:23;13.10;;;6.93;;
48006;SDS011;33771;48.180;11.400;2023-07-08T09:49:51;13.02;;;7.35;;
48006;SDS011;33771;48.180;11.400;2023-07-08T09:52:18;14.82;;;6.90;;
48006;SDS011;33771;48.180;11.400;2023-07-08T09:54:44;15.20;;;7.03;;
48006;SDS011;33771;48.180;11.400;2023-07-08T09:57:12;11.15;;;7.22;;
48006;SDS011;33771;48.180;11.400;2023-07-08T09:59:56;18.17;;;7.85;;
48006;SDS011;33771;48.180;11.400;2023-07-08T10:04:56;13.10;;;7.13;;
48006;SDS011;33771;48.180;11.400;2023-07-08T10:07:25;15.27;;;7.28;;
48006;SDS011;33771;48.180;11.400;2023-07-08T10:09:54;11.00;;;7.20;;
48006;SDS011;33771;48.180;11.400;2023-07-08T10:12:23;9.13;;;6.72;;
48006;SDS011;33771;48.180;11.400;2023-07-08T10:14:54;10.15;;;6.65;;
48006;SDS011;33771;48.180;11.400;2023-07-08T10:17:24;11.50;;;7.30;;
48006;SDS011;33771;48.180;11.400;2023-07-08T10:19:50;13.85;;;6.50;;
48006;SDS011;33771;48.180;11.400;2023-07-08T10:24:52;9.88;;;6.10;;
48006;SDS011;33771;48.180;11.400;2023-07-08T10:35:19;10.68;;;5.90;;
48006;SDS011;33771;48.180;11.400;2023-07-08T10:40:48;10.00;;;6.43;;
48006;SDS011;33771;48.180;11.400;2023-07-08T10:46:03;9.13;;;6.72;;
48006;SDS011;33771;48.180;11.400;2023-07-08T10:48:47;11.43;;;5.95;;
48006;SDS011;33771;48.180;11.400;2023-07-08T10:51:42;9.95;;;6.20;;
48006;SDS011;33771;48.180;11.400;2023-07-08T10:54:16;9.32;;;6.95;;
48006;SDS011;33771;48.180;11.400;2023-07-08T10:57:13;8.00;;;5.68;;
48006;SDS011;33771;48.180;11.400;2023-07-08T11:02:39;9.18;;;5.82;;
48006;SDS011;33771;48.180;11.400;2023-07-08T11:07:54;11.80;;;6.22;;
48006;SDS011;33771;48.180;11.400;2023-07-08T11:10:31;9.07;;;6.00;;
48006;SDS011;33771;48.180;11.400;2023-07-08T11:13:10;11.32;;;5.93;;
48006;SDS011;33771;48.180;11.400;2023-07-08T11:16:22;10.75;;;5.63;;
48006;SDS011;33771;48.180;11.400;2023-07-08T11:21:14;10.25;;;6.43;;
48006;SDS011;33771;48.180;11.400;2023-07-08T11:29:09;8.48;;;6.20;;
48006;SDS011;33771;48.180;11.400;2023-07-08T11:31:45;7.68;;;5.82;;
48006;SDS011;33771;48.180;11.400;2023-07-08T11:34:12;12.20;;;6.00;;
48006;SDS011;33771;48.180;11.400;2023-07-08T11:36:40;8.63;;;6.07;;
48006;SDS011;33771;48.180;11.400;2023-07-08T11:39:25;9.52;;;5.95;;
48006;SDS011;33771;48.180;11.400;2023-07-08T11:44:43;7.93;;;5.75;;
48006;SDS011;33771;48.180;11.400;2023-07-08T11:47:24;12.27;;;6.00;;
48006;SDS011;33771;48.180;11.400;2023-07-08T11:49:58;9.90;;;6.55;;
48006;SDS011;33771;48.180;11.400;2023-07-08T11:52:23;11.15;;;6.03;;
48006;SDS011;33771;48.180;11.400;2023-07-08T11:54:55;6.82;;;5.70;;
48006;SDS011;33771;48.180;11.400;2023-07-08T11:57:28;11.68;;;6.10;;
48006;SDS011;33771;48.180;11.400;2023-07-08T12:00:16;11.90;;;5.95;;
48006;SDS011;33771;48.180;11.400;2023-07-08T12:02:48;9.38;;;6.45;;
48006;SDS011;33771;48.180;11.400;2023-07-08T12:05:17;9.85;;;6.53;;
48006;SDS011;33771;48.180;11.400;2023-07-08T12:07:58;8.23;;;6.38;;
48006;SDS011;33771;48.180;11.400;2023-07-08T12:10:32;9.63;;;6.05;;
48006;SDS011;33771;48.180;11.400;2023-07-08T12:13:00;10.30;;;6.22;;
48006;SDS011;33771;48.180;11.400;2023-07-08T12:15:27;8.98;;;6.03;;
48006;SDS011;33771;48.180;11.400;2023-07-08T12:18:01;11.90;;;6.25;;
48006;SDS011;33771;48.180;11.400;2023-07-08T12:20:32;8.18;;;5.63;;
48006;SDS011;33771;48.180;11.400;2023-07-08T12:23:01;8.85;;;5.97;;
48006;SDS011;33771;48.180;11.400;2023-07-08T12:25:31;9.43;;;6.65;;
48006;SDS011;33771;48.180;11.400;2023-07-08T12:27:59;12.98;;;6.35;;
48006;SDS011;33771;48.180;11.400;2023-07-08T12:30:25;11.20;;;6.38;;
48006;SDS011;33771;48.180;11.400;2023-07-08T12:32:53;12.68;;;6.22;;
48006;SDS011;33771;48.180;11.400;2023-07-08T12:35:22;10.27;;;6.57;;
48006;SDS011;33771;48.180;11.400;2023-07-08T12:37:54;8.98;;;6.35;;
48006;SDS011;33771;48.180;11.400;2023-07-08T12:40:36;7.88;;;5.80;;
48006;SDS011;33771;48.180;11.400;2023-07-08T12:43:02;8.30;;;5.97;;
48006;SDS011;33771;48.180;11.400;2023-07-08T12:45:34;15.45;;;6.55;;
48006;SDS011;33771;48.180;11.400;2023-07-08T12:47:59;9.32;;;6.47;;
48006;SDS011;33771;48.180;11.400;2023-07-08T12:50:25;13.50;;;6.20;;
48006;SDS011;33771;48.180;11.400;2023-07-08T12:52:50;11.88;;;6.57;;
48006;SDS011;33771;48.180;11.400;2023-07-08T12:55:16;8.63;;;6.50;;
48006;SDS011;33771;48.180;11.400;2023-07-08T12:57:42;9.38;;;6.43;;
48006;SDS011;33771;48.180;11.400;2023-07-08T13:00:12;9.35;;;6.25;;
48006;SDS011;33771;48.180;11.400;2023-07-08T13:02:48;9.98;;;6.28;;
48006;SDS011;33771;48.180;11.400;2023-07-08T13:05:21;12.18;;;6.35;;
48006;SDS011;33771;48.180;11.400;2023-07-08T13:07:47;9.00;;;6.05;;
48006;SDS011;33771;48.180;11.400;2023-07-08T13:10:20;12.82;;;6.18;;
48006;SDS011;33771;48.180;11.400;2023-07-08T13:12:48;8.85;;;6.20;;
48006;SDS011;33771;48.180;11.400;2023-07-08T13:15:22;8.68;;;6.43;;
48006;SDS011;33771;48.180;11.400;2023-07-08T13:17:52;9.50;;;5.97;;
48006;SDS011;33771;48.180;11.400;2023-07-08T13:20:18;9.82;;;5.80;;
48006;SDS011;33771;48.180;11.400;2023-07-08T13:22:48;8.98;;;6.18;;
48006;SDS011;33771;48.180;11.400;2023-07-08T13:25:17;9.93;;;5.90;;
48006;SDS011;33771;48.180;11.400;2023-07-08T13:27:54;10.32;;;6.32;;
48006;SDS011;33771;48.180;11.400;2023-07-08T13:30:24;7.70;;;5.95;;
48006;SDS011;33771;48.180;11.400;2023-07-08T13:32:55;8.20;;;5.80;;
48006;SDS011;33771;48.180;11.400;2023-07-08T13:35:27;10.75;;;6.03;;
48006;SDS011;33771;48.180;11.400;2023-07-08T13:37:59;8.40;;;6.15;;
48006;SDS011;33771;48.180;11.400;2023-07-08T13:40:26;10.15;;;5.70;;
48006;SDS011;33771;48.180;11.400;2023-07-08T13:42:53;8.80;;;5.40;;
48006;SDS011;33771;48.180;11.400;2023-07-08T13:45:22;11.18;;;6.03;;
48006;SDS011;33771;48.180;11.400;2023-07-08T13:50:38;9.50;;;6.10;;
48006;SDS011;33771;48.180;11.400;2023-07-08T13:53:20;9.15;;;5.97;;
48006;SDS011;33771;48.180;11.400;2023-07-08T13:55:48;9.32;;;6.57;;
48006;SDS011;33771;48.180;11.400;2023-07-08T13:58:21;9.68;;;6.50;;
48006;SDS011;33771;48.180;11.400;2023-07-08T14:00:52;8.93;;;5.88;;
48006;SDS011;33771;48.180;11.400;2023-07-08T14:03:18;15.63;;;6.88;;
48006;SDS011;33771;48.180;11.400;2023-07-08T14:05:45;7.40;;;5.18;;
48006;SDS011;33771;48.180;11.400;2023-07-08T14:08:12;13.15;;;5.63;;
48006;SDS011;33771;48.180;11.400;2023-07-08T14:10:39;12.82;;;5.35;;
48006;SDS011;33771;48.180;11.400;2023-07-08T14:13:05;13.20;;;5.95;;
48006;SDS011;33771;48.180;11.400;2023-07-08T14:15:30;11.38;;;6.05;;
48006;SDS011;33771;48.180;11.400;2023-07-08T14:17:57;9.05;;;5.82;;
48006;SDS011;33771;48.180;11.400;2023-07-08T14:20:25;8.90;;;5.70;;
48006;SDS011;33771;48.180;11.400;2023-07-08T14:22:52;8.82;;;5.43;;
48006;SDS011;33771;48.180;11.400;2023-07-08T14:25:18;8.93;;;5.72;;
48006;SDS011;33771;48.180;11.400;2023-07-08T14:27:46;7.82;;;5.22;;
48006;SDS011;33771;48.180;11.400;2023-07-08T14:30:11;8.57;;;5.68;;
48006;SDS011;33771;48.180;11.400;2023-07-08T14:32:38;8.43;;;5.72;;
48006;SDS011;33771;48.180;11.400;2023-07-08T14:35:22;9.68;;;5.80;;
48006;SDS011;33771;48.180;11.400;2023-07-08T14:37:49;8.65;;;5.50;;
48006;SDS011;33771;48.180;11.400;2023-07-08T14:40:18;10.85;;;5.75;;
48006;SDS011;33771;48.180;11.400;2023-07-08T14:42:48;7.95;;;4.97;;
48006;SDS011;33771;48.180;11.400;2023-07-08T14:45:16;9.30;;;5.50;;
48006;SDS011;33771;48.180;11.400;2023-07-08T14:47:41;9.60;;;5.30;;
48006;SDS011;33771;48.180;11.400;2023-07-08T14:50:13;9.40;;;5.68;;
48006;SDS011;33771;48.180;11.400;2023-07-08T14:52:40;7.95;;;5.20;;
48006;SDS011;33771;48.180;11.400;2023-07-08T14:55:05;10.20;;;5.28;;
48006;SDS011;33771;48.180;11.400;2023-07-08T14:57:32;10.00;;;5.38;;
48006;SDS011;33771;48.180;11.400;2023-07-08T15:00:04;8.50;;;5.35;;
48006;SDS011;33771;48.180;11.400;2023-07-08T15:02:30;7.90;;;5.00;;
48006;SDS011;33771;48.180;11.400;2023-07-08T15:04:56;6.75;;;5.00;;
48006;SDS011;33771;48.180;11.400;2023-07-08T15:07:22;7.85;;;4.63;;
48006;SDS011;33771;48.180;11.400;2023-07-08T15:09:47;9.38;;;5.47;;
48006;SDS011;33771;48.180;11.400;2023-07-08T15:12:13;9.15;;;5.05;;
48006;SDS011;33771;48.180;11.400;2023-07-08T15:14:39;8.85;;;4.57;;
48006;SDS011;33771;48.180;11.400;2023-07-08T15:17:12;12.23;;;4.78;;
48006;SDS011;33771;48.180;11.400;2023-07-08T15:19:41;9.38;;;5.13;;
48006;SDS011;33771;48.180;11.400;2023-07-08T15:22:06;10.60;;;5.03;;
48006;SDS011;33771;48.180;11.400;2023-07-08T15:24:32;8.48;;;4.70;;
48006;SDS011;33771;48.180;11.400;2023-07-08T15:26:57;14.55;;;9.05;;